地図

経路データ

SID SEASON NUMBER BASIN SUBBASIN NAME ISO_TIME NATURE LAT LON WMO_WIND WMO_PRES WMO_AGENCY TRACK_TYPE DIST2LAND LANDFALL IFLAG USA_AGENCY USA_ATCF_ID USA_LAT USA_LON USA_RECORD USA_STATUS USA_WIND USA_PRES USA_SSHS USA_R34_NE USA_R34_SE USA_R34_SW USA_R34_NW USA_R50_NE USA_R50_SE USA_R50_SW USA_R50_NW USA_R64_NE USA_R64_SE USA_R64_SW USA_R64_NW USA_POCI USA_ROCI USA_RMW USA_EYE TOKYO_LAT TOKYO_LON TOKYO_GRADE TOKYO_WIND TOKYO_PRES TOKYO_R50_DIR TOKYO_R50_LONG TOKYO_R50_SHORT TOKYO_R30_DIR TOKYO_R30_LONG TOKYO_R30_SHORT TOKYO_LAND CMA_LAT CMA_LON CMA_CAT CMA_WIND CMA_PRES HKO_LAT HKO_LON HKO_CAT HKO_WIND HKO_PRES NEWDELHI_LAT NEWDELHI_LON NEWDELHI_GRADE NEWDELHI_WIND NEWDELHI_PRES NEWDELHI_CI NEWDELHI_DP NEWDELHI_POCI REUNION_LAT REUNION_LON REUNION_TYPE REUNION_WIND REUNION_PRES REUNION_TNUM REUNION_CI REUNION_RMW REUNION_R34_NE REUNION_R34_SE REUNION_R34_SW REUNION_R34_NW REUNION_R50_NE REUNION_R50_SE REUNION_R50_SW REUNION_R50_NW REUNION_R64_NE REUNION_R64_SE REUNION_R64_SW REUNION_R64_NW BOM_LAT BOM_LON BOM_TYPE BOM_WIND BOM_PRES BOM_TNUM BOM_CI BOM_RMW BOM_R34_NE BOM_R34_SE BOM_R34_SW BOM_R34_NW BOM_R50_NE BOM_R50_SE BOM_R50_SW BOM_R50_NW BOM_R64_NE BOM_R64_SE BOM_R64_SW BOM_R64_NW BOM_ROCI BOM_POCI BOM_EYE BOM_POS_METHOD BOM_PRES_METHOD NADI_LAT NADI_LON NADI_CAT NADI_WIND NADI_PRES WELLINGTON_LAT WELLINGTON_LON WELLINGTON_WIND WELLINGTON_PRES DS824_LAT DS824_LON DS824_STAGE DS824_WIND DS824_PRES TD9636_LAT TD9636_LON TD9636_STAGE TD9636_WIND TD9636_PRES TD9635_LAT TD9635_LON TD9635_WIND TD9635_PRES TD9635_ROCI NEUMANN_LAT NEUMANN_LON NEUMANN_CLASS NEUMANN_WIND NEUMANN_PRES MLC_LAT MLC_LON MLC_CLASS MLC_WIND MLC_PRES USA_GUST BOM_GUST BOM_GUST_PER REUNION_GUST REUNION_GUST_PER USA_SEAHGT USA_SEARAD_NE USA_SEARAD_SE USA_SEARAD_SW USA_SEARAD_NW STORM_SPEED STORM_DIR
1907345S19052 1908 66 SI MM NOT_NAMED 1907-12-11 00:00:00 TS -18.8000 52.2000 main 302 302 _________O____ -1 -18.8000 52.2000 TC 6 185
1907345S19052 1908 66 SI MM NOT_NAMED 1907-12-11 03:00:00 TS -19.0975 52.1900 main 311 311 _________P____ -1 -19.0975 52.1900 TC 6 179
1907345S19052 1908 66 SI MM NOT_NAMED 1907-12-11 06:00:00 TS -19.4000 52.2000 main 323 323 _________O____ -1 -19.4000 52.2000 TC 6 174
1907345S19052 1908 66 SI MM NOT_NAMED 1907-12-11 09:00:00 TS -19.7075 52.2425 main 334 325 _________P____ -1 -19.7075 52.2425 TC 6 171
1907345S19052 1908 66 SI MM NOT_NAMED 1907-12-11 12:00:00 TS -20.0000 52.3000 main 325 318 _________O____ -1 -20.0000 52.3000 TC 6 170
1907345S19052 1908 66 SI MM NOT_NAMED 1907-12-11 15:00:00 TS -20.2575 52.3426 main 314 298 _________P____ -1 -20.2575 52.3426 TC 5 169
1907345S19052 1908 66 SI MM NOT_NAMED 1907-12-11 18:00:00 TS -20.5000 52.4000 main 298 283 _________O____ -1 -20.5000 52.4000 TC 5 164
1907345S19052 1908 66 SI MM NOT_NAMED 1907-12-11 21:00:00 TS -20.7500 52.4925 main 283 269 _________P____ -1 -20.7500 52.4925 TC 5 160
1907345S19052 1908 66 SI MM NOT_NAMED 1907-12-12 00:00:00 TS -21.0000 52.6000 main 269 259 _________O____ -1 -21.0000 52.6000 TC 5 159
1907345S19052 1908 66 SI MM NOT_NAMED 1907-12-12 03:00:00 TS -21.2575 52.7000 main 260 250 _________P____ -1 -21.2575 52.7000 TC 5 160
1907345S19052 1908 66 SI MM NOT_NAMED 1907-12-12 06:00:00 TS -21.5000 52.8000 main 252 244 _________O____ -1 -21.5000 52.8000 TC 5 158
1907345S19052 1908 66 SI MM NOT_NAMED 1907-12-12 09:00:00 TS -21.7075 52.8926 main 247 240 _________P____ -1 -21.7075 52.8926 TC 4 155
1907345S19052 1908 66 SI MM NOT_NAMED 1907-12-12 12:00:00 TS -21.9000 53.0000 main 244 239 _________O____ -1 -21.9000 53.0000 TC 5 150
1907345S19052 1908 66 SI MM NOT_NAMED 1907-12-12 15:00:00 TS -22.1000 53.1350 main 244 229 _________P____ -1 -22.1000 53.1350 TC 5 145
1907345S19052 1908 66 SI MM NOT_NAMED 1907-12-12 18:00:00 TS -22.3000 53.3000 main 234 229 _________O____ -1 -22.3000 53.3000 TC 5 142
1907345S19052 1908 66 SI MM NOT_NAMED 1907-12-12 21:00:00 TS -22.4999 53.4776 main 229 227 _________P____ -1 -22.4999 53.4776 TC 5 137
1907345S19052 1908 66 SI MM NOT_NAMED 1907-12-13 00:00:00 TS -22.7000 53.7000 main 227 219 _________O____ -1 -22.7000 53.7000 TC 6 131
1907345S19052 1908 66 SI MM NOT_NAMED 1907-12-13 03:00:00 TS -22.9000 53.9850 main 223 217 _________P____ -1 -22.9000 53.9850 TC 7 126
1907345S19052 1908 66 SI MM NOT_NAMED 1907-12-13 06:00:00 TS -23.1000 54.3000 main 226 221 _________O____ -1 -23.1000 54.3000 TC 7 125
1907345S19052 1908 66 SI MM NOT_NAMED 1907-12-13 09:00:00 TS -23.3000 54.6076 main 234 231 _________P____ -1 -23.3000 54.6076 TC 7 126
1907345S19052 1908 66 SI MM NOT_NAMED 1907-12-13 12:00:00 TS -23.5000 54.9000 main 245 242 _________O____ -1 -23.5000 54.9000 TC 6 129
1907345S19052 1908 66 SI MM NOT_NAMED 1907-12-13 15:00:00 TS -23.7074 55.1501 main 260 260 _________P____ -1 -23.7074 55.1501 TC 6 131
1907345S19052 1908 66 SI MM NOT_NAMED 1907-12-13 18:00:00 TS -23.9000 55.4000 main 280 279 _________O____ -1 -23.9000 55.4000 TC 6 126
1907345S19052 1908 66 SI MM NOT_NAMED 1907-12-13 21:00:00 TS -24.0650 55.6925 main 301 301 _________P____ -1 -24.0650 55.6925 TC 6 119
1907345S19052 1908 66 SI MM NOT_NAMED 1907-12-14 00:00:00 TS -24.2000 56.0000 main 315 315 _________O____ -1 -24.2000 56.0000 TC 6 114
1907345S19052 1908 66 SI MM NOT_NAMED 1907-12-14 03:00:00 TS -24.3074 56.3001 main 332 332 _________P____ -1 -24.3074 56.3001 TC 6 110
1907345S19052 1908 66 SI MM NOT_NAMED 1907-12-14 06:00:00 TS -24.4000 56.6000 main 350 350 _________O____ -1 -24.4000 56.6000 TC 6 109
1907345S19052 1908 66 SI MM NOT_NAMED 1907-12-14 09:00:00 TS -24.4924 56.9001 main 371 371 _________P____ -1 -24.4924 56.9001 TC 6 110
1907345S19052 1908 66 SI MM NOT_NAMED 1907-12-14 12:00:00 TS -24.6000 57.2000 main 393 393 _________O____ -1 -24.6000 57.2000 TC 6 115
1907345S19052 1908 66 SI MM NOT_NAMED 1907-12-14 15:00:00 TS -24.7424 57.5000 main 416 416 _________P____ -1 -24.7424 57.5000 TC 6 119
1907345S19052 1908 66 SI MM NOT_NAMED 1907-12-14 18:00:00 TS -24.9000 57.8000 main 451 451 _________O____ -1 -24.9000 57.8000 TC 6 120
1907345S19052 1908 66 SI MM NOT_NAMED 1907-12-14 21:00:00 TS -25.0526 58.0999 main 485 485 _________P____ -1 -25.0526 58.0999 TC 6 119
1907345S19052 1908 66 SI MM NOT_NAMED 1907-12-15 00:00:00 TS -25.2000 58.4000 main 510 _________O____ -1 -25.2000 58.4000 TC 6 118

IBTrACS Databaseについて

本データベースは、米国NOAAが公開する1842年以降の世界の熱帯低気圧のベストトラックデータアーカイブInternational Best Track Archive for Climate Stewardship (IBTrACS)を、ウェブで閲覧しやすい形式に変換したものです。

最終更新日:2021-10-21